Atlas — WDG6819 — position and weather

sailwx.info

Track history (hours):
 
Tides and Currents Weather Stations Pressure Air Temp Water Temp Dewpoint Dewpoint Depression Visibility Wind Speed Wind Dir Waves Ship Positions

Atlas

Owner: Seabulk Towing, Inc., Fort Lauderdale, FL. More information available from US FCC via Universal Licensing System and Coast Guard Vessel Documentation Center.

Last reported at 2017-Nov-18 08:30 UTC. Time now 2017-Nov-18 08:37 UTC.
Position N 27°55' W 082°27'.

Length 30 m; draft 6 m.

Type: Tug. MMSI: 367560990.

Date/timePositionNaut miles runAvg speedWind from/ knotsBaromVisibWave heightAir tempDewpointWater temp
2017-Nov-18 08:30N 27°55' W 082°27'0 0.0
2017-Nov-18 08:00N 27°55' W 082°27'0 0.0
2017-Nov-18 07:30N 27°55' W 082°27'0 0.0
2017-Nov-18 07:00N 27°55' W 082°27'0 0.0
2017-Nov-18 06:30N 27°55' W 082°27'0 0.0
2017-Nov-18 06:00N 27°55' W 082°27'0 0.0
2017-Nov-18 05:30N 27°55' W 082°27'0 0.0
2017-Nov-18 05:00N 27°55' W 082°27'0 0.0
2017-Nov-18 04:30N 27°55' W 082°27'0 0.0
2017-Nov-18 04:00N 27°55' W 082°27'0 0.0
2017-Nov-18 03:30N 27°55' W 082°27'0 0.0
2017-Nov-18 03:00N 27°55' W 082°27'0 0.0
2017-Nov-18 02:30N 27°55' W 082°27'0 0.0
2017-Nov-18 02:00N 27°55' W 082°27'0 0.0
2017-Nov-18 01:30N 27°55' W 082°27'0 0.0
2017-Nov-18 01:00N 27°55' W 082°27'0 0.0
2017-Nov-18 00:30N 27°55' W 082°27'0 0.0
2017-Nov-18 00:00N 27°55' W 082°27'0 0.0
2017-Nov-17 23:30N 27°55' W 082°27'0 0.0
2017-Nov-17 23:00N 27°55' W 082°27'0 0.0
2017-Nov-17 22:30N 27°55' W 082°27'0 0.0
2017-Nov-17 22:00N 27°55' W 082°27'0 0.0
2017-Nov-17 21:30N 27°55' W 082°27'0 0.0
2017-Nov-17 21:00N 27°55' W 082°27'0 0.0
2017-Nov-17 20:30N 27°55' W 082°27'0 0.0
2017-Nov-17 20:00N 27°55' W 082°27'0 0.0
2017-Nov-17 19:30N 27°55' W 082°27'0 0.0
2017-Nov-17 19:00N 27°55' W 082°27'0 0.0
2017-Nov-17 18:30N 27°55' W 082°27'0 0.0
2017-Nov-17 18:00N 27°55' W 082°27'1 2.2
2017-Nov-17 17:30N 27°55' W 082°26'0 0.8
2017-Nov-17 17:00N 27°55' W 082°25'0 0.1
2017-Nov-17 16:30N 27°55' W 082°25'1 1.3
2017-Nov-17 16:00N 27°55' W 082°26'1 2.4
2017-Nov-17 15:30N 27°55' W 082°27'0 0.0
2017-Nov-17 15:00N 27°55' W 082°27'0 0.0
2017-Nov-17 14:30N 27°55' W 082°27'0 0.0
2017-Nov-17 14:00N 27°55' W 082°27'0 0.7
2017-Nov-17 13:30N 27°55' W 082°27'0 0.2
2017-Nov-17 13:00N 27°55' W 082°27'0 0.9
2017-Nov-17 12:31N 27°55' W 082°27'0 0.0
2017-Nov-17 12:00N 27°55' W 082°27'0 0.0
2017-Nov-17 11:30N 27°55' W 082°27'0 0.0
2017-Nov-17 11:00N 27°55' W 082°27'0 0.0
2017-Nov-17 10:30N 27°55' W 082°27'0 0.0
2017-Nov-17 10:00N 27°55' W 082°27'0 0.0
2017-Nov-17 09:30N 27°55' W 082°27'0 0.0
2017-Nov-17 09:00N 27°55' W 082°27'0 0.0
2017-Nov-17 08:31N 27°55' W 082°27'0 0.0
2017-Nov-17 08:01N 27°55' W 082°27'0 0.0
2017-Nov-17 07:30N 27°55' W 082°27'0 0.0
2017-Nov-17 07:00N 27°55' W 082°27'0 0.0
2017-Nov-17 06:30N 27°55' W 082°27'0 0.5
2017-Nov-17 06:00N 27°55' W 082°27'1 1.3
2017-Nov-17 05:30N 27°55' W 082°26'0 0.1
2017-Nov-17 05:00N 27°54' W 082°26'1 1.9
2017-Nov-17 04:30N 27°55' W 082°27'0 0.0
2017-Nov-17 04:00N 27°55' W 082°27'0 0.0
2017-Nov-17 03:30N 27°55' W 082°27'0 0.0
2017-Nov-17 03:00N 27°55' W 082°27'0 0.0
2017-Nov-17 02:30N 27°55' W 082°27'0 0.0
2017-Nov-17 02:00N 27°55' W 082°27'0 0.0
2017-Nov-17 01:30N 27°55' W 082°27'0 0.0
2017-Nov-17 01:00N 27°55' W 082°27'0 0.0
2017-Nov-17 00:30N 27°55' W 082°27'0 0.0
2017-Nov-17 00:00N 27°55' W 082°27'0 0.0
2017-Nov-16 23:30N 27°55' W 082°27'0 0.0
2017-Nov-16 23:00N 27°55' W 082°27'0 0.0
2017-Nov-16 22:30N 27°55' W 082°27'0 0.0
2017-Nov-16 22:00N 27°55' W 082°27'0 0.0
2017-Nov-16 21:30N 27°55' W 082°27'0 0.0
2017-Nov-16 21:00N 27°55' W 082°27'0 0.0
2017-Nov-16 20:30N 27°55' W 082°27'0 0.0
2017-Nov-16 20:00N 27°55' W 082°27'0 0.0
2017-Nov-16 19:30N 27°55' W 082°27'4 8.0
2017-Nov-16 19:00N 27°51' W 082°27'4 8.5
2017-Nov-16 18:30N 27°48' W 082°29'4 8.9
2017-Nov-16 18:00N 27°48' W 082°34'4 8.5
2017-Nov-16 17:31N 27°52' W 082°33'0 0.7
2017-Nov-16 17:00N 27°52' W 082°33'0 0.0
2017-Nov-16 16:30N 27°52' W 082°33'0 0.0
2017-Nov-16 16:00N 27°52' W 082°33'0 0.0
2017-Nov-16 15:30N 27°52' W 082°33'0 0.0
2017-Nov-16 15:00N 27°52' W 082°33'0 0.0
2017-Nov-16 14:30N 27°52' W 082°33'0 0.0
2017-Nov-16 14:00N 27°52' W 082°33'0 0.0
2017-Nov-16 13:30N 27°52' W 082°33'0 0.0
2017-Nov-16 13:00N 27°52' W 082°33'0 0.0
2017-Nov-16 12:30N 27°52' W 082°33'0 0.0
2017-Nov-16 12:00N 27°52' W 082°33'0 0.0
2017-Nov-16 11:30N 27°52' W 082°33'0 0.0
2017-Nov-16 11:00N 27°52' W 082°33'0 0.0
2017-Nov-16 10:30N 27°52' W 082°33'0 0.0
2017-Nov-16 10:00N 27°52' W 082°33'0 0.0
2017-Nov-16 09:30N 27°52' W 082°33'0 0.0
2017-Nov-16 09:00N 27°52' W 082°33'0 0.0
2017-Nov-16 08:30N 27°52' W 082°33'0 0.0
2017-Nov-16 08:00N 27°52' W 082°33'0 0.0
2017-Nov-16 07:30N 27°52' W 082°33'0 0.0
2017-Nov-16 07:00N 27°52' W 082°33'0 0.0
2017-Nov-16 06:30N 27°52' W 082°33'0 0.5
2017-Nov-16 06:00N 27°52' W 082°33'0 0.2
2017-Nov-16 05:30N 27°52' W 082°33'2 3.6
2017-Nov-16 04:57N 27°50' W 082°34'5 8.3
2017-Nov-16 04:20N 27°48' W 082°29'310.4
2017-Nov-16 04:00N 27°51' W 082°27'4 9.0
2017-Nov-16 03:30N 27°55' W 082°27'0 0.0
2017-Nov-16 03:00N 27°55' W 082°27'0 0.0
2017-Nov-16 02:30N 27°55' W 082°27'0 0.0
2017-Nov-16 02:00N 27°55' W 082°27'0 0.0
2017-Nov-16 01:30N 27°55' W 082°27'0 0.0
2017-Nov-16 01:00N 27°55' W 082°27'0 0.0
2017-Nov-16 00:30N 27°55' W 082°27'0 0.0
2017-Nov-16 00:00N 27°55' W 082°27'1 2.8
2017-Nov-15 23:30N 27°54' W 082°26'1 1.6
2017-Nov-15 23:00N 27°54' W 082°25'0 0.0
2017-Nov-15 22:31N 27°54' W 082°25'0 0.9
2017-Nov-15 22:00N 27°54' W 082°25'0 0.3
2017-Nov-15 21:30N 27°54' W 082°25'0 0.0
2017-Nov-15 21:00N 27°54' W 082°25'1 3.0
2017-Nov-15 20:30N 27°55' W 082°27'0 0.2
2017-Nov-15 20:00N 27°55' W 082°27'0 0.9
2017-Nov-15 19:30N 27°55' W 082°27'0 0.0
2017-Nov-15 19:00N 27°55' W 082°27'0 0.7
2017-Nov-15 18:30N 27°55' W 082°27'2 3.6
2017-Nov-15 18:01N 27°57' W 082°27'0 0.1
2017-Nov-15 17:30N 27°57' W 082°27'2 3.0
2017-Nov-15 17:00N 27°55' W 082°27'0 0.6
2017-Nov-15 16:30N 27°55' W 082°27'1 2.9
2017-Nov-15 16:01N 27°56' W 082°27'0 0.9
2017-Nov-15 15:30N 27°56' W 082°27'1 1.6
2017-Nov-15 15:00N 27°55' W 082°27'0 0.4
2017-Nov-15 14:30N 27°55' W 082°27'2 3.1
2017-Nov-15 14:00N 27°54' W 082°26'510.1
2017-Nov-15 13:31N 27°49' W 082°27'710.9
2017-Nov-15 12:51N 27°43' W 082°32'3 0.5
2017-Nov-15 07:38N 27°46' W 082°31'2 9.3
2017-Nov-15 07:24N 27°47' W 082°30'5 9.5
2017-Nov-15 06:54N 27°51' W 082°27'4 9.3
2017-Nov-15 06:30N 27°55' W 082°26'1 2.1
2017-Nov-15 06:00N 27°56' W 082°26'0 0.0
2017-Nov-15 05:30N 27°56' W 082°26'0 0.1
2017-Nov-15 05:00N 27°56' W 082°26'1 1.6
2017-Nov-15 04:30N 27°55' W 082°26'2 4.1
2017-Nov-15 04:00N 27°53' W 082°26'2 3.0
2017-Nov-15 03:30N 27°55' W 082°26'1 1.5
2017-Nov-15 03:00N 27°55' W 082°27'0 0.0
2017-Nov-15 02:30N 27°55' W 082°27'0 0.0
2017-Nov-15 02:00N 27°55' W 082°27'0 0.0
2017-Nov-15 01:30N 27°55' W 082°27'0 0.0
2017-Nov-15 01:00N 27°55' W 082°27'0 0.0
2017-Nov-15 00:30N 27°55' W 082°27'0 0.0
2017-Nov-15 00:00N 27°55' W 082°27'0 0.0
2017-Nov-14 23:30N 27°55' W 082°27'0 0.0
2017-Nov-14 23:00N 27°55' W 082°27'0 0.0
2017-Nov-14 22:30N 27°55' W 082°27'0 0.0
2017-Nov-14 22:00N 27°55' W 082°27'0 0.0
2017-Nov-14 21:30N 27°55' W 082°27'0 0.0
2017-Nov-14 21:00N 27°55' W 082°27'2 3.4
2017-Nov-14 20:30N 27°54' W 082°25'0 0.0
2017-Nov-14 20:00N 27°54' W 082°25'0 0.8
2017-Nov-14 19:30N 27°54' W 082°26'3 6.0
2017-Nov-14 19:00N 27°51' W 082°27'3 1.7
2017-Nov-14 17:27N 27°49' W 082°27'4 9.0
2017-Nov-14 17:00N 27°53' W 082°27'3 5.4
2017-Nov-14 16:30N 27°55' W 082°26'0 0.0
2017-Nov-14 16:00N 27°55' W 082°26'0 0.0
2017-Nov-14 15:30N 27°55' W 082°26'0 0.0
2017-Nov-14 15:00N 27°55' W 082°26'0 0.0
2017-Nov-14 14:30N 27°55' W 082°26'0 0.0
2017-Nov-14 14:00N 27°55' W 082°26'0 0.0
2017-Nov-14 13:30N 27°55' W 082°26'0 0.0
2017-Nov-14 13:00N 27°55' W 082°26'0 0.0
2017-Nov-14 12:30N 27°55' W 082°26'0 0.0
2017-Nov-14 12:00N 27°55' W 082°26'0 0.0
2017-Nov-14 11:30N 27°55' W 082°26'0 0.0
2017-Nov-14 11:00N 27°55' W 082°26'0 0.0
2017-Nov-14 10:30N 27°55' W 082°26'0 0.0
2017-Nov-14 10:00N 27°55' W 082°26'0 0.0
2017-Nov-14 09:30N 27°55' W 082°26'0 0.0
2017-Nov-14 09:00N 27°55' W 082°26'0 0.0
2017-Nov-14 08:30N 27°55' W 082°26'0 0.5
2017-Nov-14 08:01N 27°56' W 082°26'0 0.4
2017-Nov-14 07:31N 27°56' W 082°26'1 2.1
2017-Nov-14 07:00N 27°55' W 082°27'0 0.9
2017-Nov-14 06:30N 27°55' W 082°27'0 0.0
2017-Nov-14 06:00N 27°55' W 082°27'1 1.3
2017-Nov-14 05:30N 27°56' W 082°27'0 0.2
2017-Nov-14 05:00N 27°56' W 082°27'2 4.3
2017-Nov-14 04:30N 27°54' W 082°26'1 1.6
2017-Nov-14 04:00N 27°55' W 082°26'1 1.8
2017-Nov-14 03:30N 27°55' W 082°27'0 0.0
2017-Nov-14 03:00N 27°55' W 082°27'0 0.0
2017-Nov-14 02:30N 27°55' W 082°27'0 0.0
2017-Nov-14 02:00N 27°55' W 082°27'0 0.0
2017-Nov-14 01:30N 27°55' W 082°27'0 0.0
2017-Nov-14 01:00N 27°55' W 082°27'0 0.0
2017-Nov-14 00:30N 27°55' W 082°27'0 0.0
2017-Nov-14 00:00N 27°55' W 082°27'0 0.0
2017-Nov-13 23:30N 27°55' W 082°27'0 0.0
2017-Nov-13 23:00N 27°55' W 082°27'0 0.0
2017-Nov-13 22:30N 27°55' W 082°27'0 0.0
2017-Nov-13 22:00N 27°55' W 082°27'3 0.2
2017-Nov-13 02:00N 27°52' W 082°27'3 5.4
2017-Nov-13 01:30N 27°51' W 082°24'1 1.4
2017-Nov-13 01:00N 27°51' W 082°24'2 3.9
2017-Nov-13 00:28N 27°51' W 082°27'0 1.1
2017-Nov-13 00:00N 27°51' W 082°27'3 6.9
2017-Nov-12 23:30N 27°55' W 082°26'1 1.5
2017-Nov-12 23:00N 27°55' W 082°27'0 0.0
2017-Nov-12 22:30N 27°55' W 082°27'0 0.0
2017-Nov-12 22:00N 27°55' W 082°27'0 0.0
2017-Nov-12 21:30N 27°55' W 082°27'0 0.0
2017-Nov-12 21:00N 27°55' W 082°27'0 0.0
2017-Nov-12 20:30N 27°55' W 082°27'0 0.0
2017-Nov-12 20:00N 27°55' W 082°27'0 0.0
2017-Nov-12 19:30N 27°55' W 082°27'0 0.0
2017-Nov-12 19:00N 27°55' W 082°27'0 0.0
2017-Nov-12 18:30N 27°55' W 082°27'0 0.0
2017-Nov-12 18:00N 27°55' W 082°27'0 0.5
2017-Nov-12 17:30N 27°55' W 082°27'1 2.2
2017-Nov-12 17:01N 27°54' W 082°26'1 1.9
2017-Nov-12 16:30N 27°55' W 082°27'0 0.7
2017-Nov-12 16:00N 27°55' W 082°27'0 0.0
2017-Nov-12 15:30N 27°55' W 082°27'0 0.0
2017-Nov-12 15:00N 27°55' W 082°27'0 0.0
2017-Nov-12 14:30N 27°55' W 082°27'0 0.0
2017-Nov-12 14:00N 27°55' W 082°27'0 0.0
2017-Nov-12 13:30N 27°55' W 082°27'0 0.0
2017-Nov-12 13:00N 27°55' W 082°27'0 0.0
2017-Nov-12 12:30N 27°55' W 082°27'0 0.0
2017-Nov-12 12:00N 27°55' W 082°27'0 0.0
2017-Nov-12 11:30N 27°55' W 082°27'0 0.0
2017-Nov-12 11:00N 27°55' W 082°27'0 0.0
2017-Nov-12 10:30N 27°55' W 082°27'0 0.0
2017-Nov-12 10:00N 27°55' W 082°27'0 0.0
2017-Nov-12 09:30N 27°55' W 082°27'0 0.0
2017-Nov-12 09:00N 27°55' W 082°27'0 0.0
2017-Nov-12 08:30N 27°55' W 082°27'0 0.0
2017-Nov-12 08:00N 27°55' W 082°27'0 0.0
2017-Nov-12 07:30N 27°55' W 082°27'0 0.0
2017-Nov-12 07:00N 27°55' W 082°27'0 0.0
2017-Nov-12 06:30N 27°55' W 082°27'0 0.0
2017-Nov-12 06:00N 27°55' W 082°27'0 0.0
2017-Nov-12 05:30N 27°55' W 082°27'0 0.2
2017-Nov-12 05:00N 27°55' W 082°27'1 2.2
2017-Nov-12 04:30N 27°55' W 082°26'0 0.7
2017-Nov-12 04:00N 27°55' W 082°26'0 0.0
2017-Nov-12 03:31N 27°55' W 082°26'1 2.3
2017-Nov-12 03:00N 27°55' W 082°27'0 0.0
2017-Nov-12 02:30N 27°55' W 082°27'0 0.0
2017-Nov-12 02:00N 27°55' W 082°27'0 0.0
2017-Nov-12 01:30N 27°55' W 082°27'0 0.0
2017-Nov-12 01:00N 27°55' W 082°27'0 0.0
2017-Nov-12 00:30N 27°55' W 082°27'0 0.0
2017-Nov-12 00:00N 27°55' W 082°27'0 0.0
2017-Nov-11 23:30N 27°55' W 082°27'0 0.0
2017-Nov-11 23:00N 27°55' W 082°27'0 0.0
2017-Nov-11 22:30N 27°55' W 082°27'0 0.0
2017-Nov-11 22:00N 27°55' W 082°27'0 0.0
2017-Nov-11 21:30N 27°55' W 082°27'0 0.0
2017-Nov-11 21:00N 27°55' W 082°27'0 0.0
2017-Nov-11 20:30N 27°55' W 082°27'0 0.0
2017-Nov-11 20:00N 27°55' W 082°27'0 0.0
2017-Nov-11 19:30N 27°55' W 082°27'2 4.2
2017-Nov-11 19:00N 27°53' W 082°26'4 8.3
2017-Nov-11 18:30N 27°49' W 082°27'2 3.0
2017-Nov-11 17:45N 27°48' W 082°24'0 0.2
2017-Nov-11 17:30N 27°48' W 082°24'1 1.0
2017-Nov-11 16:48N 27°48' W 082°25'1 1.5
2017-Nov-11 16:24N 27°48' W 082°25'1 2.7
2017-Nov-11 15:58N 27°49' W 082°26'1 1.5
2017-Nov-11 15:02N 27°48' W 082°25'0 0.7
2017-Nov-11 15:00N 27°48' W 082°25'0 0.3
2017-Nov-11 14:05N 27°48' W 082°25'1 5.9
2017-Nov-11 13:51N 27°49' W 082°27'1 1.5
2017-Nov-11 13:30N 27°49' W 082°27'1 1.5
2017-Nov-11 13:00N 27°50' W 082°27'3 6.3
2017-Nov-11 12:28N 27°51' W 082°24'0 0.2
2017-Nov-11 11:35N 27°51' W 082°23'0 0.2
2017-Nov-11 11:30N 27°51' W 082°23'3 5.7
2017-Nov-11 11:00N 27°52' W 082°27'3 6.8
2017-Nov-11 10:30N 27°55' W 082°27'0 0.0
2017-Nov-11 10:00N 27°55' W 082°27'0 0.0
2017-Nov-11 09:30N 27°55' W 082°27'0 0.0
2017-Nov-11 09:00N 27°55' W 082°27'0 0.0
2017-Nov-11 08:30N 27°55' W 082°27'0 0.0
2017-Nov-11 08:00N 27°55' W 082°27'0 0.0
2017-Nov-11 07:30N 27°55' W 082°27'0 0.0
2017-Nov-11 07:00N 27°55' W 082°27'0 0.0
2017-Nov-11 06:30N 27°55' W 082°27'0 0.0
2017-Nov-11 06:00N 27°55' W 082°27'0 0.0
2017-Nov-11 05:30N 27°55' W 082°27'0 0.0
2017-Nov-11 05:00N 27°55' W 082°27'0 0.0
2017-Nov-11 04:30N 27°55' W 082°27'0 0.0
2017-Nov-11 04:00N 27°55' W 082°27'0 0.0
2017-Nov-11 03:30N 27°55' W 082°27'0 0.0
2017-Nov-11 03:00N 27°55' W 082°27'0 0.0
2017-Nov-11 02:30N 27°55' W 082°27'0 0.0
2017-Nov-11 02:00N 27°55' W 082°27'0 0.0
2017-Nov-11 01:30N 27°55' W 082°27'0 0.0
2017-Nov-11 01:00N 27°55' W 082°27'0 0.0
2017-Nov-11 00:30N 27°55' W 082°27'0 0.0
2017-Nov-11 00:00N 27°55' W 082°27'0 0.0
2017-Nov-10 23:30N 27°55' W 082°27'0 0.0
2017-Nov-10 23:00N 27°55' W 082°27'0 0.0
2017-Nov-10 22:30N 27°55' W 082°27'0 0.0
2017-Nov-10 22:00N 27°55' W 082°27'0 0.0
2017-Nov-10 21:30N 27°55' W 082°27'0 0.0
2017-Nov-10 21:00N 27°55' W 082°27'0 0.0
2017-Nov-10 20:30N 27°55' W 082°27'0 0.0
2017-Nov-10 20:00N 27°55' W 082°27'0 0.0
2017-Nov-10 19:30N 27°55' W 082°27'0 0.0
2017-Nov-10 19:00N 27°55' W 082°27'0 0.0
2017-Nov-10 18:30N 27°55' W 082°27'0 0.0
2017-Nov-10 18:00N 27°55' W 082°27'0 0.0
2017-Nov-10 17:30N 27°55' W 082°27'0 0.0
2017-Nov-10 17:00N 27°55' W 082°27'0 0.0
2017-Nov-10 16:30N 27°55' W 082°27'0 0.0
2017-Nov-10 16:00N 27°55' W 082°27'0 0.0
2017-Nov-10 15:30N 27°55' W 082°27'0 0.0
2017-Nov-10 15:00N 27°55' W 082°27'0 0.0
2017-Nov-10 13:41N 27°55' W 082°27'0 0.0
2017-Nov-10 13:30N 27°55' W 082°27'0 0.0
2017-Nov-10 13:00N 27°55' W 082°27'0 0.0
2017-Nov-10 12:30N 27°55' W 082°27'0 0.0
2017-Nov-10 12:00N 27°55' W 082°27'0 0.0
2017-Nov-10 11:30N 27°55' W 082°27'0 0.0
2017-Nov-10 11:00N 27°55' W 082°27'0 0.0
2017-Nov-10 10:30N 27°55' W 082°27'0 0.0
2017-Nov-10 10:00N 27°55' W 082°27'0 0.0
2017-Nov-10 09:30N 27°55' W 082°27'0 0.0
2017-Nov-10 09:00N 27°55' W 082°27'0 0.0
2017-Nov-10 08:30N 27°55' W 082°27'0 0.0
2017-Nov-10 08:00N 27°55' W 082°27'0 0.0
2017-Nov-10 07:30N 27°55' W 082°27'0 0.0
2017-Nov-10 07:00N 27°55' W 082°27'0 0.0
2017-Nov-10 06:30N 27°55' W 082°27'0 0.0
2017-Nov-10 06:00N 27°55' W 082°27'0 0.0
2017-Nov-10 05:30N 27°55' W 082°27'0 0.0
2017-Nov-10 05:00N 27°55' W 082°27'0 0.0
2017-Nov-10 04:30N 27°55' W 082°27'0 0.0
2017-Nov-10 04:00N 27°55' W 082°27'0 0.0
2017-Nov-10 03:30N 27°55' W 082°27'0 0.0
2017-Nov-10 03:00N 27°55' W 082°27'0 0.0
2017-Nov-10 02:30N 27°55' W 082°27'0 0.0
2017-Nov-10 02:00N 27°55' W 082°27'0 0.0
2017-Nov-10 01:30N 27°55' W 082°27'0 0.0
2017-Nov-10 01:00N 27°55' W 082°27'0 0.0
2017-Nov-10 00:30N 27°55' W 082°27'0 0.0
2017-Nov-10 00:00N 27°55' W 082°27'0 0.0
2017-Nov-09 23:30N 27°55' W 082°27'0 0.4
2017-Nov-09 23:01N 27°55' W 082°27'0 0.2
2017-Nov-09 22:30N 27°55' W 082°27'1 1.6
2017-Nov-09 22:00N 27°54' W 082°26'0 0.7
2017-Nov-09 21:30N 27°54' W 082°26'0 0.0
2017-Nov-09 21:00N 27°54' W 082°26'1 2.6
2017-Nov-09 20:30N 27°55' W 082°27'0 0.0
2017-Nov-09 20:00N 27°55' W 082°27'0 0.0
2017-Nov-09 19:30N 27°55' W 082°27'0 0.0
2017-Nov-09 19:01N 27°55' W 082°27'1 2.1
2017-Nov-09 18:30N 27°55' W 082°26'0 0.0
2017-Nov-09 18:00N 27°55' W 082°26'0 0.1
2017-Nov-09 17:30N 27°55' W 082°26'0 0.4
2017-Nov-09 17:00N 27°55' W 082°26'2 3.4
2017-Nov-09 16:30N 27°53' W 082°26'0 0.6
2017-Nov-09 16:00N 27°54' W 082°26'2 3.2
2017-Nov-09 15:30N 27°55' W 082°27'0 0.0
2017-Nov-09 15:00N 27°55' W 082°27'1 2.9
2017-Nov-09 14:30N 27°57' W 082°27'0 0.1
2017-Nov-09 14:01N 27°57' W 082°27'0 0.0
2017-Nov-09 13:30N 27°57' W 082°27'0 0.0
2017-Nov-09 13:00N 27°57' W 082°27'1 2.5
2017-Nov-09 12:30N 27°55' W 082°27'4 8.7
2017-Nov-09 12:00N 27°51' W 082°27'4 8.1
2017-Nov-09 11:30N 27°48' W 082°29'5 8.0
2017-Nov-09 10:56N 27°48' W 082°34'3 7.6
2017-Nov-09 10:28N 27°52' W 082°33'0 0.5
2017-Nov-09 10:00N 27°52' W 082°33'0 0.5
2017-Nov-09 09:30N 27°52' W 082°33'0 0.0
2017-Nov-09 09:00N 27°52' W 082°33'0 0.0
2017-Nov-09 08:30N 27°52' W 082°33'0 0.0
2017-Nov-09 08:00N 27°52' W 082°33'0 0.0
2017-Nov-09 07:30N 27°52' W 082°33'0 0.0
2017-Nov-09 07:00N 27°52' W 082°33'0 0.0
2017-Nov-09 06:30N 27°52' W 082°33'0 0.0
2017-Nov-09 06:00N 27°52' W 082°33'0 0.0
2017-Nov-09 05:30N 27°52' W 082°33'0 0.0
2017-Nov-09 05:00N 27°52' W 082°33'0 0.0
2017-Nov-09 04:30N 27°52' W 082°33'0 0.0
2017-Nov-09 04:00N 27°52' W 082°33'0 0.0
2017-Nov-09 03:30N 27°52' W 082°33'0 0.0
2017-Nov-09 03:00N 27°52' W 082°33'0 0.0
2017-Nov-09 02:30N 27°52' W 082°33'0 0.0
2017-Nov-09 02:00N 27°52' W 082°33'0 0.0
2017-Nov-09 01:30N 27°52' W 082°33'0 0.0
2017-Nov-09 01:00N 27°52' W 082°33'0 0.0
2017-Nov-09 00:30N 27°52' W 082°33'0 0.0
2017-Nov-09 00:00N 27°52' W 082°33'0 0.0
2017-Nov-08 23:30N 27°52' W 082°33'0 0.0
2017-Nov-08 23:00N 27°52' W 082°33'0 0.0
2017-Nov-08 22:30N 27°52' W 082°33'0 0.0
2017-Nov-08 22:00N 27°52' W 082°33'0 0.0
2017-Nov-08 21:30N 27°52' W 082°33'2 3.8
2017-Nov-08 21:00N 27°50' W 082°34'4 7.1
2017-Nov-08 20:27N 27°47' W 082°31'3 7.0
2017-Nov-08 20:00N 27°48' W 082°34'4 7.2
2017-Nov-08 19:31N 27°52' W 082°33'0 0.4
2017-Nov-08 19:00N 27°52' W 082°33'0 0.2
2017-Nov-08 18:30N 27°52' W 082°33'1 2.0
2017-Nov-08 17:54N 27°51' W 082°34'0 0.2
2017-Nov-08 17:30N 27°50' W 082°34'1 1.8
2017-Nov-08 16:59N 27°51' W 082°33'2 3.9
2017-Nov-08 16:31N 27°50' W 082°34'4 3.9
2017-Nov-08 15:23N 27°48' W 082°30'5 5.3
2017-Nov-08 14:28N 27°48' W 082°24'1 1.1
2017-Nov-08 13:15N 27°49' W 082°26'1 4.1
2017-Nov-08 12:57N 27°50' W 082°27'4 9.5
2017-Nov-08 12:30N 27°54' W 082°26'2 3.2
2017-Nov-08 12:00N 27°55' W 082°27'0 0.0
2017-Nov-08 11:30N 27°55' W 082°27'0 0.0
2017-Nov-08 11:00N 27°55' W 082°27'0 0.0
2017-Nov-08 10:30N 27°55' W 082°27'0 0.0
2017-Nov-08 10:00N 27°55' W 082°27'0 0.0
2017-Nov-08 09:30N 27°55' W 082°27'0 0.0
2017-Nov-08 09:00N 27°55' W 082°27'0 0.0
2017-Nov-08 08:30N 27°55' W 082°27'  
Track history (hours):
 
Tides and Currents Weather Stations Pressure Air Temp Water Temp Dewpoint Dewpoint Depression Visibility Wind Speed Wind Dir Waves Ship Positions

Atlas

Owner: Seabulk Towing, Inc., Fort Lauderdale, FL. More information available from US FCC via Universal Licensing System and Coast Guard Vessel Documentation Center.

Last reported at 2017-Nov-18 08:30 UTC. Time now 2017-Nov-18 08:37 UTC.
Position N 27°55' W 082°27'.

Length 30 m; draft 6 m.

Type: Tug. MMSI: 367560990.

Date/timePositionNaut miles runAvg speedWind from/ knotsBaromVisibWave heightAir tempDewpointWater temp
2017-Nov-18 08:30N 27°55' W 082°27'0 0.0
2017-Nov-18 08:00N 27°55' W 082°27'0 0.0
2017-Nov-18 07:30N 27°55' W 082°27'0 0.0
2017-Nov-18 07:00N 27°55' W 082°27'0 0.0
2017-Nov-18 06:30N 27°55' W 082°27'0 0.0
2017-Nov-18 06:00N 27°55' W 082°27'0 0.0
2017-Nov-18 05:30N 27°55' W 082°27'0 0.0
2017-Nov-18 05:00N 27°55' W 082°27'0 0.0
2017-Nov-18 04:30N 27°55' W 082°27'0 0.0
2017-Nov-18 04:00N 27°55' W 082°27'0 0.0
2017-Nov-18 03:30N 27°55' W 082°27'0 0.0
2017-Nov-18 03:00N 27°55' W 082°27'0 0.0
2017-Nov-18 02:30N 27°55' W 082°27'0 0.0
2017-Nov-18 02:00N 27°55' W 082°27'0 0.0
2017-Nov-18 01:30N 27°55' W 082°27'0 0.0
2017-Nov-18 01:00N 27°55' W 082°27'0 0.0
2017-Nov-18 00:30N 27°55' W 082°27'0 0.0
2017-Nov-18 00:00N 27°55' W 082°27'0 0.0
2017-Nov-17 23:30N 27°55' W 082°27'0 0.0
2017-Nov-17 23:00N 27°55' W 082°27'0 0.0
2017-Nov-17 22:30N 27°55' W 082°27'0 0.0
2017-Nov-17 22:00N 27°55' W 082°27'0 0.0
2017-Nov-17 21:30N 27°55' W 082°27'0 0.0
2017-Nov-17 21:00N 27°55' W 082°27'0 0.0
2017-Nov-17 20:30N 27°55' W 082°27'0 0.0
2017-Nov-17 20:00N 27°55' W 082°27'0 0.0
2017-Nov-17 19:30N 27°55' W 082°27'0 0.0
2017-Nov-17 19:00N 27°55' W 082°27'0 0.0
2017-Nov-17 18:30N 27°55' W 082°27'0 0.0
2017-Nov-17 18:00N 27°55' W 082°27'1 2.2
2017-Nov-17 17:30N 27°55' W 082°26'0 0.8
2017-Nov-17 17:00N 27°55' W 082°25'0 0.1
2017-Nov-17 16:30N 27°55' W 082°25'1 1.3
2017-Nov-17 16:00N 27°55' W 082°26'1 2.4
2017-Nov-17 15:30N 27°55' W 082°27'0 0.0
2017-Nov-17 15:00N 27°55' W 082°27'0 0.0
2017-Nov-17 14:30N 27°55' W 082°27'0 0.0
2017-Nov-17 14:00N 27°55' W 082°27'0 0.7
2017-Nov-17 13:30N 27°55' W 082°27'0 0.2
2017-Nov-17 13:00N 27°55' W 082°27'0 0.9
2017-Nov-17 12:31N 27°55' W 082°27'0 0.0
2017-Nov-17 12:00N 27°55' W 082°27'0 0.0
2017-Nov-17 11:30N 27°55' W 082°27'0 0.0
2017-Nov-17 11:00N 27°55' W 082°27'0 0.0
2017-Nov-17 10:30N 27°55' W 082°27'0 0.0
2017-Nov-17 10:00N 27°55' W 082°27'0 0.0
2017-Nov-17 09:30N 27°55' W 082°27'0 0.0
2017-Nov-17 09:00N 27°55' W 082°27'0 0.0
2017-Nov-17 08:31N 27°55' W 082°27'0 0.0
2017-Nov-17 08:01N 27°55' W 082°27'0 0.0
2017-Nov-17 07:30N 27°55' W 082°27'0 0.0
2017-Nov-17 07:00N 27°55' W 082°27'0 0.0
2017-Nov-17 06:30N 27°55' W 082°27'0 0.5
2017-Nov-17 06:00N 27°55' W 082°27'1 1.3
2017-Nov-17 05:30N 27°55' W 082°26'0 0.1
2017-Nov-17 05:00N 27°54' W 082°26'1 1.9
2017-Nov-17 04:30N 27°55' W 082°27'0 0.0
2017-Nov-17 04:00N 27°55' W 082°27'0 0.0
2017-Nov-17 03:30N 27°55' W 082°27'0 0.0
2017-Nov-17 03:00N 27°55' W 082°27'0 0.0
2017-Nov-17 02:30N 27°55' W 082°27'0 0.0
2017-Nov-17 02:00N 27°55' W 082°27'0 0.0
2017-Nov-17 01:30N 27°55' W 082°27'0 0.0
2017-Nov-17 01:00N 27°55' W 082°27'0 0.0
2017-Nov-17 00:30N 27°55' W 082°27'0 0.0
2017-Nov-17 00:00N 27°55' W 082°27'0 0.0
2017-Nov-16 23:30N 27°55' W 082°27'0 0.0
2017-Nov-16 23:00N 27°55' W 082°27'0 0.0
2017-Nov-16 22:30N 27°55' W 082°27'0 0.0
2017-Nov-16 22:00N 27°55' W 082°27'0 0.0
2017-Nov-16 21:30N 27°55' W 082°27'0 0.0
2017-Nov-16 21:00N 27°55' W 082°27'0 0.0
2017-Nov-16 20:30N 27°55' W 082°27'0 0.0
2017-Nov-16 20:00N 27°55' W 082°27'0 0.0
2017-Nov-16 19:30N 27°55' W 082°27'4 8.0
2017-Nov-16 19:00N 27°51' W 082°27'4 8.5
2017-Nov-16 18:30N 27°48' W 082°29'4 8.9
2017-Nov-16 18:00N 27°48' W 082°34'4 8.5
2017-Nov-16 17:31N 27°52' W 082°33'0 0.7
2017-Nov-16 17:00N 27°52' W 082°33'0 0.0
2017-Nov-16 16:30N 27°52' W 082°33'0 0.0
2017-Nov-16 16:00N 27°52' W 082°33'0 0.0
2017-Nov-16 15:30N 27°52' W 082°33'0 0.0
2017-Nov-16 15:00N 27°52' W 082°33'0 0.0
2017-Nov-16 14:30N 27°52' W 082°33'0 0.0
2017-Nov-16 14:00N 27°52' W 082°33'0 0.0
2017-Nov-16 13:30N 27°52' W 082°33'0 0.0
2017-Nov-16 13:00N 27°52' W 082°33'0 0.0
2017-Nov-16 12:30N 27°52' W 082°33'0 0.0
2017-Nov-16 12:00N 27°52' W 082°33'0 0.0
2017-Nov-16 11:30N 27°52' W 082°33'0 0.0
2017-Nov-16 11:00N 27°52' W 082°33'0 0.0
2017-Nov-16 10:30N 27°52' W 082°33'0 0.0
2017-Nov-16 10:00N 27°52' W 082°33'0 0.0
2017-Nov-16 09:30N 27°52' W 082°33'0 0.0
2017-Nov-16 09:00N 27°52' W 082°33'0 0.0
2017-Nov-16 08:30N 27°52' W 082°33'0 0.0
2017-Nov-16 08:00N 27°52' W 082°33'0 0.0
2017-Nov-16 07:30N 27°52' W 082°33'0 0.0
2017-Nov-16 07:00N 27°52' W 082°33'0 0.0
2017-Nov-16 06:30N 27°52' W 082°33'0 0.5
2017-Nov-16 06:00N 27°52' W 082°33'0 0.2
2017-Nov-16 05:30N 27°52' W 082°33'2 3.6
2017-Nov-16 04:57N 27°50' W 082°34'5 8.3
2017-Nov-16 04:20N 27°48' W 082°29'310.4
2017-Nov-16 04:00N 27°51' W 082°27'4 9.0
2017-Nov-16 03:30N 27°55' W 082°27'0 0.0
2017-Nov-16 03:00N 27°55' W 082°27'0 0.0
2017-Nov-16 02:30N 27°55' W 082°27'0 0.0
2017-Nov-16 02:00N 27°55' W 082°27'0 0.0
2017-Nov-16 01:30N 27°55' W 082°27'0 0.0
2017-Nov-16 01:00N 27°55' W 082°27'0 0.0
2017-Nov-16 00:30N 27°55' W 082°27'0 0.0
2017-Nov-16 00:00N 27°55' W 082°27'1 2.8
2017-Nov-15 23:30N 27°54' W 082°26'1 1.6
2017-Nov-15 23:00N 27°54' W 082°25'0 0.0
2017-Nov-15 22:31N 27°54' W 082°25'0 0.9
2017-Nov-15 22:00N 27°54' W 082°25'0 0.3
2017-Nov-15 21:30N 27°54' W 082°25'0 0.0
2017-Nov-15 21:00N 27°54' W 082°25'1 3.0
2017-Nov-15 20:30N 27°55' W 082°27'0 0.2
2017-Nov-15 20:00N 27°55' W 082°27'0 0.9
2017-Nov-15 19:30N 27°55' W 082°27'0 0.0
2017-Nov-15 19:00N 27°55' W 082°27'0 0.7
2017-Nov-15 18:30N 27°55' W 082°27'2 3.6
2017-Nov-15 18:01N 27°57' W 082°27'0 0.1
2017-Nov-15 17:30N 27°57' W 082°27'2 3.0
2017-Nov-15 17:00N 27°55' W 082°27'0 0.6
2017-Nov-15 16:30N 27°55' W 082°27'1 2.9
2017-Nov-15 16:01N 27°56' W 082°27'0 0.9
2017-Nov-15 15:30N 27°56' W 082°27'1 1.6
2017-Nov-15 15:00N 27°55' W 082°27'0 0.4
2017-Nov-15 14:30N 27°55' W 082°27'2 3.1
2017-Nov-15 14:00N 27°54' W 082°26'510.1
2017-Nov-15 13:31N 27°49' W 082°27'710.9
2017-Nov-15 12:51N 27°43' W 082°32'3 0.5
2017-Nov-15 07:38N 27°46' W 082°31'2 9.3
2017-Nov-15 07:24N 27°47' W 082°30'5 9.5
2017-Nov-15 06:54N 27°51' W 082°27'4 9.3
2017-Nov-15 06:30N 27°55' W 082°26'1 2.1
2017-Nov-15 06:00N 27°56' W 082°26'0 0.0
2017-Nov-15 05:30N 27°56' W 082°26'0 0.1
2017-Nov-15 05:00N 27°56' W 082°26'1 1.6
2017-Nov-15 04:30N 27°55' W 082°26'2 4.1
2017-Nov-15 04:00N 27°53' W 082°26'2 3.0
2017-Nov-15 03:30N 27°55' W 082°26'1 1.5
2017-Nov-15 03:00N 27°55' W 082°27'0 0.0
2017-Nov-15 02:30N 27°55' W 082°27'0 0.0
2017-Nov-15 02:00N 27°55' W 082°27'0 0.0
2017-Nov-15 01:30N 27°55' W 082°27'0 0.0
2017-Nov-15 01:00N 27°55' W 082°27'0 0.0
2017-Nov-15 00:30N 27°55' W 082°27'0 0.0
2017-Nov-15 00:00N 27°55' W 082°27'0 0.0
2017-Nov-14 23:30N 27°55' W 082°27'0 0.0
2017-Nov-14 23:00N 27°55' W 082°27'0 0.0
2017-Nov-14 22:30N 27°55' W 082°27'0 0.0
2017-Nov-14 22:00N 27°55' W 082°27'0 0.0
2017-Nov-14 21:30N 27°55' W 082°27'0 0.0
2017-Nov-14 21:00N 27°55' W 082°27'2 3.4
2017-Nov-14 20:30N 27°54' W 082°25'0 0.0
2017-Nov-14 20:00N 27°54' W 082°25'0 0.8
2017-Nov-14 19:30N 27°54' W 082°26'3 6.0
2017-Nov-14 19:00N 27°51' W 082°27'3 1.7
2017-Nov-14 17:27N 27°49' W 082°27'4 9.0
2017-Nov-14 17:00N 27°53' W 082°27'3 5.4
2017-Nov-14 16:30N 27°55' W 082°26'0 0.0
2017-Nov-14 16:00N 27°55' W 082°26'0 0.0
2017-Nov-14 15:30N 27°55' W 082°26'0 0.0
2017-Nov-14 15:00N 27°55' W 082°26'0 0.0
2017-Nov-14 14:30N 27°55' W 082°26'0 0.0
2017-Nov-14 14:00N 27°55' W 082°26'0 0.0
2017-Nov-14 13:30N 27°55' W 082°26'0 0.0
2017-Nov-14 13:00N 27°55' W 082°26'0 0.0
2017-Nov-14 12:30N 27°55' W 082°26'0 0.0
2017-Nov-14 12:00N 27°55' W 082°26'0 0.0
2017-Nov-14 11:30N 27°55' W 082°26'0 0.0
2017-Nov-14 11:00N 27°55' W 082°26'0 0.0
2017-Nov-14 10:30N 27°55' W 082°26'0 0.0
2017-Nov-14 10:00N 27°55' W 082°26'0 0.0
2017-Nov-14 09:30N 27°55' W 082°26'0 0.0
2017-Nov-14 09:00N 27°55' W 082°26'0 0.0
2017-Nov-14 08:30N 27°55' W 082°26'0 0.5
2017-Nov-14 08:01N 27°56' W 082°26'0 0.4
2017-Nov-14 07:31N 27°56' W 082°26'1 2.1
2017-Nov-14 07:00N 27°55' W 082°27'0 0.9
2017-Nov-14 06:30N 27°55' W 082°27'0 0.0
2017-Nov-14 06:00N 27°55' W 082°27'1 1.3
2017-Nov-14 05:30N 27°56' W 082°27'0 0.2
2017-Nov-14 05:00N 27°56' W 082°27'2 4.3
2017-Nov-14 04:30N 27°54' W 082°26'1 1.6
2017-Nov-14 04:00N 27°55' W 082°26'1 1.8
2017-Nov-14 03:30N 27°55' W 082°27'0 0.0
2017-Nov-14 03:00N 27°55' W 082°27'0 0.0
2017-Nov-14 02:30N 27°55' W 082°27'0 0.0
2017-Nov-14 02:00N 27°55' W 082°27'0 0.0
2017-Nov-14 01:30N 27°55' W 082°27'0 0.0
2017-Nov-14 01:00N 27°55' W 082°27'0 0.0
2017-Nov-14 00:30N 27°55' W 082°27'0 0.0
2017-Nov-14 00:00N 27°55' W 082°27'0 0.0
2017-Nov-13 23:30N 27°55' W 082°27'0 0.0
2017-Nov-13 23:00N 27°55' W 082°27'0 0.0
2017-Nov-13 22:30N 27°55' W 082°27'0 0.0
2017-Nov-13 22:00N 27°55' W 082°27'3 0.2
2017-Nov-13 02:00N 27°52' W 082°27'3 5.4
2017-Nov-13 01:30N 27°51' W 082°24'1 1.4
2017-Nov-13 01:00N 27°51' W 082°24'2 3.9
2017-Nov-13 00:28N 27°51' W 082°27'0 1.1
2017-Nov-13 00:00N 27°51' W 082°27'3 6.9
2017-Nov-12 23:30N 27°55' W 082°26'1 1.5
2017-Nov-12 23:00N 27°55' W 082°27'0 0.0
2017-Nov-12 22:30N 27°55' W 082°27'0 0.0
2017-Nov-12 22:00N 27°55' W 082°27'0 0.0
2017-Nov-12 21:30N 27°55' W 082°27'0 0.0
2017-Nov-12 21:00N 27°55' W 082°27'0 0.0
2017-Nov-12 20:30N 27°55' W 082°27'0 0.0
2017-Nov-12 20:00N 27°55' W 082°27'0 0.0
2017-Nov-12 19:30N 27°55' W 082°27'0 0.0
2017-Nov-12 19:00N 27°55' W 082°27'0 0.0
2017-Nov-12 18:30N 27°55' W 082°27'0 0.0
2017-Nov-12 18:00N 27°55' W 082°27'0 0.5
2017-Nov-12 17:30N 27°55' W 082°27'1 2.2
2017-Nov-12 17:01N 27°54' W 082°26'1 1.9
2017-Nov-12 16:30N 27°55' W 082°27'0 0.7
2017-Nov-12 16:00N 27°55' W 082°27'0 0.0
2017-Nov-12 15:30N 27°55' W 082°27'0 0.0
2017-Nov-12 15:00N 27°55' W 082°27'0 0.0
2017-Nov-12 14:30N 27°55' W 082°27'0 0.0
2017-Nov-12 14:00N 27°55' W 082°27'0 0.0
2017-Nov-12 13:30N 27°55' W 082°27'0 0.0
2017-Nov-12 13:00N 27°55' W 082°27'0 0.0
2017-Nov-12 12:30N 27°55' W 082°27'0 0.0
2017-Nov-12 12:00N 27°55' W 082°27'0 0.0
2017-Nov-12 11:30N 27°55' W 082°27'0 0.0
2017-Nov-12 11:00N 27°55' W 082°27'0 0.0
2017-Nov-12 10:30N 27°55' W 082°27'0 0.0
2017-Nov-12 10:00N 27°55' W 082°27'0 0.0
2017-Nov-12 09:30N 27°55' W 082°27'0 0.0
2017-Nov-12 09:00N 27°55' W 082°27'0 0.0
2017-Nov-12 08:30N 27°55' W 082°27'0 0.0
2017-Nov-12 08:00N 27°55' W 082°27'0 0.0
2017-Nov-12 07:30N 27°55' W 082°27'0 0.0
2017-Nov-12 07:00N 27°55' W 082°27'0 0.0
2017-Nov-12 06:30N 27°55' W 082°27'0 0.0
2017-Nov-12 06:00N 27°55' W 082°27'0 0.0
2017-Nov-12 05:30N 27°55' W 082°27'0 0.2
2017-Nov-12 05:00N 27°55' W 082°27'1 2.2
2017-Nov-12 04:30N 27°55' W 082°26'0 0.7
2017-Nov-12 04:00N 27°55' W 082°26'0 0.0
2017-Nov-12 03:31N 27°55' W 082°26'1 2.3
2017-Nov-12 03:00N 27°55' W 082°27'0 0.0
2017-Nov-12 02:30N 27°55' W 082°27'0 0.0
2017-Nov-12 02:00N 27°55' W 082°27'0 0.0
2017-Nov-12 01:30N 27°55' W 082°27'0 0.0
2017-Nov-12 01:00N 27°55' W 082°27'0 0.0
2017-Nov-12 00:30N 27°55' W 082°27'0 0.0
2017-Nov-12 00:00N 27°55' W 082°27'0 0.0
2017-Nov-11 23:30N 27°55' W 082°27'0 0.0
2017-Nov-11 23:00N 27°55' W 082°27'0 0.0
2017-Nov-11 22:30N 27°55' W 082°27'0 0.0
2017-Nov-11 22:00N 27°55' W 082°27'0 0.0
2017-Nov-11 21:30N 27°55' W 082°27'0 0.0
2017-Nov-11 21:00N 27°55' W 082°27'0 0.0
2017-Nov-11 20:30N 27°55' W 082°27'0 0.0
2017-Nov-11 20:00N 27°55' W 082°27'0 0.0
2017-Nov-11 19:30N 27°55' W 082°27'2 4.2
2017-Nov-11 19:00N 27°53' W 082°26'4 8.3
2017-Nov-11 18:30N 27°49' W 082°27'2 3.0
2017-Nov-11 17:45N 27°48' W 082°24'0 0.2
2017-Nov-11 17:30N 27°48' W 082°24'1 1.0
2017-Nov-11 16:48N 27°48' W 082°25'1 1.5
2017-Nov-11 16:24N 27°48' W 082°25'1 2.7
2017-Nov-11 15:58N 27°49' W 082°26'1 1.5
2017-Nov-11 15:02N 27°48' W 082°25'0 0.7
2017-Nov-11 15:00N 27°48' W 082°25'0 0.3
2017-Nov-11 14:05N 27°48' W 082°25'1 5.9
2017-Nov-11 13:51N 27°49' W 082°27'1 1.5
2017-Nov-11 13:30N 27°49' W 082°27'1 1.5
2017-Nov-11 13:00N 27°50' W 082°27'3 6.3
2017-Nov-11 12:28N 27°51' W 082°24'0 0.2
2017-Nov-11 11:35N 27°51' W 082°23'0 0.2
2017-Nov-11 11:30N 27°51' W 082°23'3 5.7
2017-Nov-11 11:00N 27°52' W 082°27'3 6.8
2017-Nov-11 10:30N 27°55' W 082°27'0 0.0
2017-Nov-11 10:00N 27°55' W 082°27'0 0.0
2017-Nov-11 09:30N 27°55' W 082°27'0 0.0
2017-Nov-11 09:00N 27°55' W 082°27'0 0.0
2017-Nov-11 08:30N 27°55' W 082°27'0 0.0
2017-Nov-11 08:00N 27°55' W 082°27'0 0.0
2017-Nov-11 07:30N 27°55' W 082°27'0 0.0
2017-Nov-11 07:00N 27°55' W 082°27'0 0.0
2017-Nov-11 06:30N 27°55' W 082°27'0 0.0
2017-Nov-11 06:00N 27°55' W 082°27'0 0.0
2017-Nov-11 05:30N 27°55' W 082°27'0 0.0
2017-Nov-11 05:00N 27°55' W 082°27'0 0.0
2017-Nov-11 04:30N 27°55' W 082°27'0 0.0
2017-Nov-11 04:00N 27°55' W 082°27'0 0.0
2017-Nov-11 03:30N 27°55' W 082°27'0 0.0
2017-Nov-11 03:00N 27°55' W 082°27'0 0.0
2017-Nov-11 02:30N 27°55' W 082°27'0 0.0
2017-Nov-11 02:00N 27°55' W 082°27'0 0.0
2017-Nov-11 01:30N 27°55' W 082°27'0 0.0
2017-Nov-11 01:00N 27°55' W 082°27'0 0.0
2017-Nov-11 00:30N 27°55' W 082°27'0 0.0
2017-Nov-11 00:00N 27°55' W 082°27'0 0.0
2017-Nov-10 23:30N 27°55' W 082°27'0 0.0
2017-Nov-10 23:00N 27°55' W 082°27'0 0.0
2017-Nov-10 22:30N 27°55' W 082°27'0 0.0
2017-Nov-10 22:00N 27°55' W 082°27'0 0.0
2017-Nov-10 21:30N 27°55' W 082°27'0 0.0
2017-Nov-10 21:00N 27°55' W 082°27'0 0.0
2017-Nov-10 20:30N 27°55' W 082°27'0 0.0
2017-Nov-10 20:00N 27°55' W 082°27'0 0.0
2017-Nov-10 19:30N 27°55' W 082°27'0 0.0
2017-Nov-10 19:00N 27°55' W 082°27'0 0.0
2017-Nov-10 18:30N 27°55' W 082°27'0 0.0
2017-Nov-10 18:00N 27°55' W 082°27'0 0.0
2017-Nov-10 17:30N 27°55' W 082°27'0 0.0
2017-Nov-10 17:00N 27°55' W 082°27'0 0.0
2017-Nov-10 16:30N 27°55' W 082°27'0 0.0
2017-Nov-10 16:00N 27°55' W 082°27'0 0.0
2017-Nov-10 15:30N 27°55' W 082°27'0 0.0
2017-Nov-10 15:00N 27°55' W 082°27'0 0.0
2017-Nov-10 13:41N 27°55' W 082°27'0 0.0
2017-Nov-10 13:30N 27°55' W 082°27'0 0.0
2017-Nov-10 13:00N 27°55' W 082°27'0 0.0
2017-Nov-10 12:30N 27°55' W 082°27'0 0.0
2017-Nov-10 12:00N 27°55' W 082°27'0 0.0
2017-Nov-10 11:30N 27°55' W 082°27'0 0.0
2017-Nov-10 11:00N 27°55' W 082°27'0 0.0
2017-Nov-10 10:30N 27°55' W 082°27'0 0.0
2017-Nov-10 10:00N 27°55' W 082°27'0 0.0
2017-Nov-10 09:30N 27°55' W 082°27'0 0.0
2017-Nov-10 09:00N 27°55' W 082°27'0 0.0
2017-Nov-10 08:30N 27°55' W 082°27'0 0.0
2017-Nov-10 08:00N 27°55' W 082°27'0 0.0
2017-Nov-10 07:30N 27°55' W 082°27'0 0.0
2017-Nov-10 07:00N 27°55' W 082°27'0 0.0
2017-Nov-10 06:30N 27°55' W 082°27'0 0.0
2017-Nov-10 06:00N 27°55' W 082°27'0 0.0
2017-Nov-10 05:30N 27°55' W 082°27'0 0.0
2017-Nov-10 05:00N 27°55' W 082°27'0 0.0
2017-Nov-10 04:30N 27°55' W 082°27'0 0.0
2017-Nov-10 04:00N 27°55' W 082°27'0 0.0
2017-Nov-10 03:30N 27°55' W 082°27'0 0.0
2017-Nov-10 03:00N 27°55' W 082°27'0 0.0
2017-Nov-10 02:30N 27°55' W 082°27'0 0.0
2017-Nov-10 02:00N 27°55' W 082°27'0 0.0
2017-Nov-10 01:30N 27°55' W 082°27'0 0.0
2017-Nov-10 01:00N 27°55' W 082°27'0 0.0
2017-Nov-10 00:30N 27°55' W 082°27'0 0.0
2017-Nov-10 00:00N 27°55' W 082°27'0 0.0
2017-Nov-09 23:30N 27°55' W 082°27'0 0.4
2017-Nov-09 23:01N 27°55' W 082°27'0 0.2
2017-Nov-09 22:30N 27°55' W 082°27'1 1.6
2017-Nov-09 22:00N 27°54' W 082°26'0 0.7
2017-Nov-09 21:30N 27°54' W 082°26'0 0.0
2017-Nov-09 21:00N 27°54' W 082°26'1 2.6
2017-Nov-09 20:30N 27°55' W 082°27'0 0.0
2017-Nov-09 20:00N 27°55' W 082°27'0 0.0
2017-Nov-09 19:30N 27°55' W 082°27'0 0.0
2017-Nov-09 19:01N 27°55' W 082°27'1 2.1
2017-Nov-09 18:30N 27°55' W 082°26'0 0.0
2017-Nov-09 18:00N 27°55' W 082°26'0 0.1
2017-Nov-09 17:30N 27°55' W 082°26'0 0.4
2017-Nov-09 17:00N 27°55' W 082°26'2 3.4
2017-Nov-09 16:30N 27°53' W 082°26'0 0.6
2017-Nov-09 16:00N 27°54' W 082°26'2 3.2
2017-Nov-09 15:30N 27°55' W 082°27'0 0.0
2017-Nov-09 15:00N 27°55' W 082°27'1 2.9
2017-Nov-09 14:30N 27°57' W 082°27'0 0.1
2017-Nov-09 14:01N 27°57' W 082°27'0 0.0
2017-Nov-09 13:30N 27°57' W 082°27'0 0.0
2017-Nov-09 13:00N 27°57' W 082°27'1 2.5
2017-Nov-09 12:30N 27°55' W 082°27'4 8.7
2017-Nov-09 12:00N 27°51' W 082°27'4 8.1
2017-Nov-09 11:30N 27°48' W 082°29'5 8.0
2017-Nov-09 10:56N 27°48' W 082°34'3 7.6
2017-Nov-09 10:28N 27°52' W 082°33'0 0.5
2017-Nov-09 10:00N 27°52' W 082°33'0 0.5
2017-Nov-09 09:30N 27°52' W 082°33'0 0.0
2017-Nov-09 09:00N 27°52' W 082°33'0 0.0
2017-Nov-09 08:30N 27°52' W 082°33'0 0.0
2017-Nov-09 08:00N 27°52' W 082°33'0 0.0
2017-Nov-09 07:30N 27°52' W 082°33'0 0.0
2017-Nov-09 07:00N 27°52' W 082°33'0 0.0
2017-Nov-09 06:30N 27°52' W 082°33'0 0.0
2017-Nov-09 06:00N 27°52' W 082°33'0 0.0
2017-Nov-09 05:30N 27°52' W 082°33'0 0.0
2017-Nov-09 05:00N 27°52' W 082°33'0 0.0
2017-Nov-09 04:30N 27°52' W 082°33'0 0.0
2017-Nov-09 04:00N 27°52' W 082°33'0 0.0
2017-Nov-09 03:30N 27°52' W 082°33'0 0.0
2017-Nov-09 03:00N 27°52' W 082°33'0 0.0
2017-Nov-09 02:30N 27°52' W 082°33'0 0.0
2017-Nov-09 02:00N 27°52' W 082°33'0 0.0
2017-Nov-09 01:30N 27°52' W 082°33'0 0.0
2017-Nov-09 01:00N 27°52' W 082°33'0 0.0
2017-Nov-09 00:30N 27°52' W 082°33'0 0.0
2017-Nov-09 00:00N 27°52' W 082°33'0 0.0
2017-Nov-08 23:30N 27°52' W 082°33'0 0.0
2017-Nov-08 23:00N 27°52' W 082°33'0 0.0
2017-Nov-08 22:30N 27°52' W 082°33'0 0.0
2017-Nov-08 22:00N 27°52' W 082°33'0 0.0
2017-Nov-08 21:30N 27°52' W 082°33'2 3.8
2017-Nov-08 21:00N 27°50' W 082°34'4 7.1
2017-Nov-08 20:27N 27°47' W 082°31'3 7.0
2017-Nov-08 20:00N 27°48' W 082°34'4 7.2
2017-Nov-08 19:31N 27°52' W 082°33'0 0.4
2017-Nov-08 19:00N 27°52' W 082°33'0 0.2
2017-Nov-08 18:30N 27°52' W 082°33'1 2.0
2017-Nov-08 17:54N 27°51' W 082°34'0 0.2
2017-Nov-08 17:30N 27°50' W 082°34'1 1.8
2017-Nov-08 16:59N 27°51' W 082°33'2 3.9
2017-Nov-08 16:31N 27°50' W 082°34'4 3.9
2017-Nov-08 15:23N 27°48' W 082°30'5 5.3
2017-Nov-08 14:28N 27°48' W 082°24'1 1.1
2017-Nov-08 13:15N 27°49' W 082°26'1 4.1
2017-Nov-08 12:57N 27°50' W 082°27'4 9.5
2017-Nov-08 12:30N 27°54' W 082°26'2 3.2
2017-Nov-08 12:00N 27°55' W 082°27'0 0.0
2017-Nov-08 11:30N 27°55' W 082°27'0 0.0
2017-Nov-08 11:00N 27°55' W 082°27'0 0.0
2017-Nov-08 10:30N 27°55' W 082°27'0 0.0
2017-Nov-08 10:00N 27°55' W 082°27'0 0.0
2017-Nov-08 09:30N 27°55' W 082°27'0 0.0
2017-Nov-08 09:00N 27°55' W 082°27'0 0.0
2017-Nov-08 08:30N 27°55' W 082°27'  

Dump ship's entire track history